createdAt,value
2019-06-01T00:00:23.409Z,22.00
2019-06-01T00:03:07.704Z,22.70
2019-06-01T00:05:50.382Z,23.20
2019-06-01T00:08:33.320Z,22.40
2019-06-01T00:11:15.981Z,23.90
2019-06-01T00:13:59.162Z,22.50
2019-06-01T00:16:42.208Z,23.40
2019-06-01T00:19:25.231Z,24.50
2019-06-01T00:22:09.375Z,24.60
2019-06-01T00:24:52.419Z,24.00
2019-06-01T00:27:34.978Z,23.40
2019-06-01T00:30:27.114Z,23.70
2019-06-01T00:33:03.366Z,24.80
2019-06-01T00:35:47.373Z,24.70
2019-06-01T00:38:31.440Z,25.70
2019-06-01T00:41:14.493Z,25.50
2019-06-01T00:43:57.079Z,25.90
2019-06-01T00:46:40.319Z,27.50
2019-06-01T00:49:23.300Z,26.20
2019-06-01T00:52:06.432Z,25.50
2019-06-01T00:54:49.509Z,26.30
2019-06-01T00:57:32.252Z,26.60
2019-06-01T01:00:15.216Z,26.60
2019-06-01T01:02:58.332Z,28.10
2019-06-01T01:05:40.983Z,27.80
2019-06-01T01:08:24.292Z,27.60
2019-06-01T01:11:07.209Z,27.10
2019-06-01T01:13:51.201Z,27.20
2019-06-01T01:16:34.239Z,27.80
2019-06-01T01:19:17.169Z,28.30
2019-06-01T01:22:00.882Z,28.40
2019-06-01T01:24:46.281Z,29.80
2019-06-01T01:27:29.184Z,32.40
2019-06-01T01:30:12.301Z,34.50
2019-06-01T01:32:55.827Z,35.80
2019-06-01T01:35:39.018Z,36.00
2019-06-01T01:38:21.496Z,35.80
2019-06-01T01:41:04.693Z,30.80
2019-06-01T01:43:48.346Z,29.30
2019-06-01T01:46:31.531Z,28.60
2019-06-01T01:49:14.115Z,30.00
2019-06-01T01:51:57.409Z,30.20
2019-06-01T01:54:40.416Z,30.00
2019-06-01T01:57:23.266Z,30.20
2019-06-01T02:00:05.943Z,30.70
2019-06-01T02:02:49.117Z,32.50
2019-06-01T02:05:31.968Z,34.70
2019-06-01T02:08:15.178Z,34.00
2019-06-01T02:10:57.890Z,32.50
2019-06-01T02:13:41.039Z,32.90
2019-06-01T02:16:23.557Z,33.50
2019-06-01T02:19:06.494Z,32.90
2019-06-01T02:21:49.105Z,32.70
2019-06-01T02:24:32.031Z,32.90
2019-06-01T02:27:14.959Z,33.80
2019-06-01T02:29:59.244Z,35.70
2019-06-01T02:32:42.218Z,35.40
2019-06-01T02:35:25.434Z,34.50
2019-06-01T02:38:08.166Z,34.50
2019-06-01T02:40:51.406Z,33.80
2019-06-01T02:43:34.277Z,33.50
2019-06-01T02:46:17.325Z,32.10
2019-06-01T02:49:01.903Z,32.80
2019-06-01T02:51:44.264Z,33.00
2019-06-01T02:54:26.906Z,34.10
2019-06-01T02:57:09.940Z,35.00
2019-06-01T02:59:53.006Z,35.20
2019-06-01T03:02:35.884Z,34.00
2019-06-01T03:05:18.668Z,34.10
2019-06-01T03:08:02.063Z,33.70
2019-06-01T03:10:45.367Z,33.40
2019-06-01T03:13:30.359Z,33.80
2019-06-01T03:16:16.173Z,34.60
2019-06-01T03:19:01.865Z,35.00
2019-06-01T03:21:46.351Z,36.00
2019-06-01T03:24:30.236Z,35.70
2019-06-01T03:27:15.311Z,36.10
2019-06-01T03:30:05.298Z,37.10
2019-06-01T03:32:46.147Z,37.50
2019-06-01T03:35:29.446Z,37.90
2019-06-01T03:38:12.125Z,37.90
2019-06-01T03:40:54.906Z,38.40
2019-06-01T03:43:38.580Z,38.70
2019-06-01T03:46:22.645Z,39.00
2019-06-01T03:49:05.752Z,39.40
2019-06-01T03:51:48.886Z,39.40
2019-06-01T03:54:31.723Z,39.80
2019-06-01T03:57:14.653Z,40.20
2019-06-01T03:59:57.180Z,39.90
2019-06-01T04:02:39.943Z,40.00
2019-06-01T04:05:22.811Z,39.80
2019-06-01T04:08:05.716Z,39.70
2019-06-01T04:10:48.339Z,39.10
2019-06-01T04:13:31.381Z,39.30
2019-06-01T04:16:14.138Z,39.60
2019-06-01T04:18:57.161Z,40.20
2019-06-01T04:21:39.855Z,40.80
2019-06-01T04:24:22.748Z,40.90
2019-06-01T04:27:06.130Z,40.60
2019-06-01T04:29:49.221Z,41.40
2019-06-01T04:32:31.863Z,41.50
2019-06-01T04:35:14.715Z,41.80
2019-06-01T04:37:57.516Z,41.40
2019-06-01T04:40:40.536Z,41.90
2019-06-01T04:43:23.146Z,42.10
2019-06-01T04:46:08.111Z,42.60
2019-06-01T04:48:50.996Z,42.50
2019-06-01T04:51:34.339Z,42.50
2019-06-01T04:54:17.039Z,43.00
2019-06-01T04:57:00.161Z,42.10
2019-06-01T04:59:42.988Z,42.60
2019-06-01T05:02:25.926Z,42.50
2019-06-01T05:05:09.363Z,42.90
2019-06-01T05:07:52.394Z,42.90
2019-06-01T05:10:35.292Z,43.60
2019-06-01T05:13:18.065Z,44.00
2019-06-01T05:16:00.821Z,43.80
2019-06-01T05:18:43.907Z,44.10
2019-06-01T05:21:26.711Z,44.20
2019-06-01T05:24:10.593Z,44.70
2019-06-01T05:26:53.321Z,45.10
2019-06-01T05:29:36.284Z,45.10
2019-06-01T05:32:19.113Z,45.30
2019-06-01T05:35:02.149Z,46.50
2019-06-01T05:37:44.827Z,45.80
2019-06-01T05:40:27.773Z,45.30
2019-06-01T05:43:14.232Z,45.60
2019-06-01T05:45:55.418Z,45.80
2019-06-01T05:48:38.253Z,45.70
2019-06-01T05:51:21.407Z,45.60
2019-06-01T05:54:04.175Z,45.80
2019-06-01T05:56:47.153Z,46.10
2019-06-01T05:59:29.731Z,46.00
2019-06-01T06:02:13.218Z,46.00
2019-06-01T06:04:55.724Z,46.10
2019-06-01T06:07:38.550Z,46.00
2019-06-01T06:10:22.114Z,46.20
2019-06-01T06:13:05.084Z,46.20
2019-06-01T06:15:48.575Z,46.30
2019-06-01T06:18:31.463Z,45.90
2019-06-01T06:21:14.242Z,46.10
2019-06-01T06:23:57.188Z,45.90
2019-06-01T06:26:39.995Z,45.80
2019-06-01T06:29:23.100Z,45.30
2019-06-01T06:32:08.686Z,45.00
2019-06-01T06:34:50.163Z,45.00
2019-06-01T06:37:32.760Z,45.40
2019-06-01T06:40:15.971Z,45.50
2019-06-01T06:42:58.765Z,46.30
2019-06-01T06:45:41.669Z,46.30
2019-06-01T06:48:25.270Z,46.10
2019-06-01T06:51:08.624Z,46.40
2019-06-01T06:53:51.723Z,46.30
2019-06-01T06:56:34.990Z,47.10
2019-06-01T06:59:18.470Z,47.00
2019-06-01T07:02:01.350Z,46.60
2019-06-01T07:04:43.864Z,46.30
2019-06-01T07:07:27.559Z,46.80
2019-06-01T07:10:10.686Z,46.40
2019-06-01T07:12:53.638Z,46.10
2019-06-01T07:15:36.358Z,46.80
2019-06-01T07:18:19.424Z,46.40
2019-06-01T07:21:02.465Z,45.50
2019-06-01T07:23:45.268Z,45.00
2019-06-01T07:26:28.163Z,45.50
2019-06-01T07:29:11.436Z,45.60
2019-06-01T07:31:53.962Z,45.70
2019-06-01T07:34:41.847Z,46.10
2019-06-01T07:37:22.504Z,46.30
2019-06-01T07:40:05.691Z,46.10
2019-06-01T07:42:48.434Z,46.40
2019-06-01T07:45:33.512Z,46.40
2019-06-01T07:48:15.527Z,45.90
2019-06-01T07:50:58.405Z,45.70
2019-06-01T07:53:42.302Z,46.20
2019-06-01T07:56:26.534Z,46.60
2019-06-01T07:59:09.577Z,46.90
2019-06-01T08:01:52.520Z,47.90
2019-06-01T08:04:51.895Z,47.20
2019-06-01T08:07:21.406Z,47.30
2019-06-01T08:10:04.029Z,47.80
2019-06-01T08:12:47.014Z,47.50
2019-06-01T08:15:29.828Z,47.50
2019-06-01T08:18:12.927Z,47.50
2019-06-01T08:20:55.662Z,46.90
2019-06-01T08:23:38.588Z,47.20
2019-06-01T08:26:22.199Z,46.70
2019-06-01T08:29:05.358Z,47.10
2019-06-01T08:31:48.081Z,47.40
2019-06-01T08:34:31.065Z,48.00
2019-06-01T08:37:13.971Z,47.20
2019-06-01T08:39:59.246Z,45.80
2019-06-01T08:42:41.598Z,47.40
